sensor_id;sensor_type;location;lat;lon;timestamp;P1;durP1;ratioP1;P2;durP2;ratioP2
19635;SDS011;9965;50.774;7.188;2022-07-24T00:02:14;8.73;;;6.63;;
19635;SDS011;9965;50.774;7.188;2022-07-24T00:04:39;8.00;;;6.67;;
19635;SDS011;9965;50.774;7.188;2022-07-24T00:07:05;9.37;;;6.90;;
19635;SDS011;9965;50.774;7.188;2022-07-24T00:09:31;9.73;;;7.37;;
19635;SDS011;9965;50.774;7.188;2022-07-24T00:11:56;8.47;;;6.90;;
19635;SDS011;9965;50.774;7.188;2022-07-24T00:14:23;9.67;;;6.87;;
19635;SDS011;9965;50.774;7.188;2022-07-24T00:16:49;8.07;;;7.30;;
19635;SDS011;9965;50.774;7.188;2022-07-24T00:19:15;9.27;;;6.80;;
19635;SDS011;9965;50.774;7.188;2022-07-24T00:21:41;7.80;;;7.00;;
19635;SDS011;9965;50.774;7.188;2022-07-24T00:24:06;8.23;;;6.53;;
19635;SDS011;9965;50.774;7.188;2022-07-24T00:26:33;8.97;;;7.50;;
19635;SDS011;9965;50.774;7.188;2022-07-24T00:28:59;9.00;;;6.80;;
19635;SDS011;9965;50.774;7.188;2022-07-24T00:31:25;9.57;;;7.50;;
19635;SDS011;9965;50.774;7.188;2022-07-24T00:33:51;10.10;;;7.27;;
19635;SDS011;9965;50.774;7.188;2022-07-24T00:36:16;8.00;;;7.20;;
19635;SDS011;9965;50.774;7.188;2022-07-24T00:38:42;8.03;;;7.13;;
19635;SDS011;9965;50.774;7.188;2022-07-24T00:41:08;8.17;;;6.87;;
19635;SDS011;9965;50.774;7.188;2022-07-24T00:43:34;10.77;;;7.33;;
19635;SDS011;9965;50.774;7.188;2022-07-24T00:45:59;8.97;;;7.23;;
19635;SDS011;9965;50.774;7.188;2022-07-24T00:48:25;12.50;;;7.30;;
19635;SDS011;9965;50.774;7.188;2022-07-24T00:50:51;9.23;;;7.60;;
19635;SDS011;9965;50.774;7.188;2022-07-24T00:53:17;9.40;;;7.33;;
19635;SDS011;9965;50.774;7.188;2022-07-24T00:55:43;9.37;;;7.60;;
19635;SDS011;9965;50.774;7.188;2022-07-24T00:58:09;10.53;;;7.80;;
19635;SDS011;9965;50.774;7.188;2022-07-24T01:00:35;8.70;;;7.70;;
19635;SDS011;9965;50.774;7.188;2022-07-24T01:03:00;7.87;;;6.70;;
19635;SDS011;9965;50.774;7.188;2022-07-24T01:05:26;7.77;;;7.07;;
19635;SDS011;9965;50.774;7.188;2022-07-24T01:07:52;9.60;;;7.13;;
19635;SDS011;9965;50.774;7.188;2022-07-24T01:10:18;9.47;;;7.43;;
19635;SDS011;9965;50.774;7.188;2022-07-24T01:12:43;9.07;;;7.27;;
19635;SDS011;9965;50.774;7.188;2022-07-24T01:15:09;11.60;;;8.20;;
19635;SDS011;9965;50.774;7.188;2022-07-24T01:17:37;8.30;;;7.50;;
19635;SDS011;9965;50.774;7.188;2022-07-24T01:20:05;8.17;;;7.37;;
19635;SDS011;9965;50.774;7.188;2022-07-24T01:22:32;9.87;;;7.87;;
19635;SDS011;9965;50.774;7.188;2022-07-24T01:24:58;8.70;;;7.77;;
19635;SDS011;9965;50.774;7.188;2022-07-24T01:27:24;8.63;;;7.77;;
19635;SDS011;9965;50.774;7.188;2022-07-24T01:29:50;11.03;;;8.00;;
19635;SDS011;9965;50.774;7.188;2022-07-24T01:32:16;10.37;;;7.53;;
19635;SDS011;9965;50.774;7.188;2022-07-24T01:34:42;8.77;;;7.90;;
19635;SDS011;9965;50.774;7.188;2022-07-24T01:37:08;10.50;;;8.37;;
19635;SDS011;9965;50.774;7.188;2022-07-24T01:39:34;11.87;;;7.50;;
19635;SDS011;9965;50.774;7.188;2022-07-24T01:44:56;9.83;;;8.47;;
19635;SDS011;9965;50.774;7.188;2022-07-24T01:47:22;11.20;;;8.53;;
19635;SDS011;9965;50.774;7.188;2022-07-24T01:49:47;13.20;;;8.47;;
19635;SDS011;9965;50.774;7.188;2022-07-24T01:52:13;9.07;;;8.00;;
19635;SDS011;9965;50.774;7.188;2022-07-24T01:54:39;10.13;;;8.23;;
19635;SDS011;9965;50.774;7.188;2022-07-24T01:57:05;12.03;;;8.70;;
19635;SDS011;9965;50.774;7.188;2022-07-24T01:59:30;11.83;;;7.93;;
19635;SDS011;9965;50.774;7.188;2022-07-24T02:01:56;9.63;;;8.60;;
19635;SDS011;9965;50.774;7.188;2022-07-24T02:04:21;9.13;;;8.20;;
19635;SDS011;9965;50.774;7.188;2022-07-24T02:06:47;9.30;;;8.40;;
19635;SDS011;9965;50.774;7.188;2022-07-24T02:09:13;9.70;;;8.70;;
19635;SDS011;9965;50.774;7.188;2022-07-24T02:11:38;9.80;;;8.20;;
19635;SDS011;9965;50.774;7.188;2022-07-24T02:14:04;10.33;;;8.70;;
19635;SDS011;9965;50.774;7.188;2022-07-24T02:16:30;9.43;;;8.53;;
19635;SDS011;9965;50.774;7.188;2022-07-24T02:18:55;9.50;;;8.27;;
19635;SDS011;9965;50.774;7.188;2022-07-24T02:21:21;11.90;;;9.10;;
19635;SDS011;9965;50.774;7.188;2022-07-24T02:23:47;12.20;;;8.03;;
19635;SDS011;9965;50.774;7.188;2022-07-24T02:26:13;9.40;;;8.13;;
19635;SDS011;9965;50.774;7.188;2022-07-24T02:28:39;10.13;;;7.60;;
19635;SDS011;9965;50.774;7.188;2022-07-24T02:31:05;9.03;;;8.07;;
19635;SDS011;9965;50.774;7.188;2022-07-24T02:33:31;9.63;;;8.23;;
19635;SDS011;9965;50.774;7.188;2022-07-24T02:35:57;15.73;;;8.53;;
19635;SDS011;9965;50.774;7.188;2022-07-24T02:38:22;9.47;;;8.47;;
19635;SDS011;9965;50.774;7.188;2022-07-24T02:40:48;9.10;;;8.20;;
19635;SDS011;9965;50.774;7.188;2022-07-24T02:43:14;9.97;;;8.50;;
19635;SDS011;9965;50.774;7.188;2022-07-24T02:45:39;9.27;;;8.07;;
19635;SDS011;9965;50.774;7.188;2022-07-24T02:48:05;10.00;;;9.00;;
19635;SDS011;9965;50.774;7.188;2022-07-24T02:50:31;10.07;;;8.33;;
19635;SDS011;9965;50.774;7.188;2022-07-24T02:52:58;11.93;;;9.43;;
19635;SDS011;9965;50.774;7.188;2022-07-24T02:55:24;10.33;;;8.50;;
19635;SDS011;9965;50.774;7.188;2022-07-24T02:57:51;8.93;;;8.03;;
19635;SDS011;9965;50.774;7.188;2022-07-24T03:00:17;10.57;;;8.17;;
19635;SDS011;9965;50.774;7.188;2022-07-24T03:02:43;9.87;;;8.83;;
19635;SDS011;9965;50.774;7.188;2022-07-24T03:05:09;9.00;;;7.77;;
19635;SDS011;9965;50.774;7.188;2022-07-24T03:07:35;9.23;;;8.33;;
19635;SDS011;9965;50.774;7.188;2022-07-24T03:10:05;10.43;;;8.80;;
19635;SDS011;9965;50.774;7.188;2022-07-24T03:12:31;9.73;;;8.73;;
19635;SDS011;9965;50.774;7.188;2022-07-24T03:14:57;11.27;;;9.00;;
19635;SDS011;9965;50.774;7.188;2022-07-24T03:17:23;9.50;;;8.53;;
19635;SDS011;9965;50.774;7.188;2022-07-24T03:19:49;12.83;;;8.57;;
19635;SDS011;9965;50.774;7.188;2022-07-24T03:22:14;12.03;;;8.60;;
19635;SDS011;9965;50.774;7.188;2022-07-24T03:24:40;10.57;;;8.80;;
19635;SDS011;9965;50.774;7.188;2022-07-24T03:27:06;11.47;;;8.47;;
19635;SDS011;9965;50.774;7.188;2022-07-24T03:29:31;13.73;;;9.10;;
19635;SDS011;9965;50.774;7.188;2022-07-24T03:31:57;10.27;;;9.13;;
19635;SDS011;9965;50.774;7.188;2022-07-24T03:34:22;10.60;;;8.43;;
19635;SDS011;9965;50.774;7.188;2022-07-24T03:36:48;10.03;;;9.00;;
19635;SDS011;9965;50.774;7.188;2022-07-24T03:39:14;9.23;;;8.33;;
19635;SDS011;9965;50.774;7.188;2022-07-24T03:41:39;10.43;;;9.43;;
19635;SDS011;9965;50.774;7.188;2022-07-24T03:44:05;10.97;;;8.97;;
19635;SDS011;9965;50.774;7.188;2022-07-24T03:46:31;10.90;;;9.00;;
19635;SDS011;9965;50.774;7.188;2022-07-24T03:48:57;10.63;;;9.03;;
19635;SDS011;9965;50.774;7.188;2022-07-24T03:51:23;16.33;;;10.07;;
19635;SDS011;9965;50.774;7.188;2022-07-24T03:53:48;11.70;;;8.90;;
19635;SDS011;9965;50.774;7.188;2022-07-24T03:56:14;10.03;;;8.90;;
19635;SDS011;9965;50.774;7.188;2022-07-24T03:58:40;9.83;;;8.87;;
19635;SDS011;9965;50.774;7.188;2022-07-24T04:01:06;11.27;;;9.03;;
19635;SDS011;9965;50.774;7.188;2022-07-24T04:03:32;10.03;;;9.00;;
19635;SDS011;9965;50.774;7.188;2022-07-24T04:06:00;10.23;;;9.23;;
19635;SDS011;9965;50.774;7.188;2022-07-24T04:08:30;10.33;;;9.03;;
19635;SDS011;9965;50.774;7.188;2022-07-24T04:10:56;9.80;;;8.80;;
19635;SDS011;9965;50.774;7.188;2022-07-24T04:13:29;11.07;;;8.37;;
19635;SDS011;9965;50.774;7.188;2022-07-24T04:15:56;11.00;;;9.07;;
19635;SDS011;9965;50.774;7.188;2022-07-24T04:18:22;12.60;;;8.60;;
19635;SDS011;9965;50.774;7.188;2022-07-24T04:20:48;11.80;;;8.93;;
19635;SDS011;9965;50.774;7.188;2022-07-24T04:23:15;9.57;;;8.63;;
19635;SDS011;9965;50.774;7.188;2022-07-24T04:25:41;15.90;;;9.13;;
19635;SDS011;9965;50.774;7.188;2022-07-24T04:28:06;9.87;;;8.80;;
19635;SDS011;9965;50.774;7.188;2022-07-24T04:30:32;9.30;;;8.40;;
19635;SDS011;9965;50.774;7.188;2022-07-24T04:32:58;9.53;;;8.50;;
19635;SDS011;9965;50.774;7.188;2022-07-24T04:35:24;9.00;;;8.10;;
19635;SDS011;9965;50.774;7.188;2022-07-24T04:37:50;10.17;;;8.63;;
19635;SDS011;9965;50.774;7.188;2022-07-24T04:40:15;9.23;;;8.27;;
19635;SDS011;9965;50.774;7.188;2022-07-24T04:42:41;9.43;;;8.07;;
19635;SDS011;9965;50.774;7.188;2022-07-24T04:45:07;9.23;;;8.23;;
19635;SDS011;9965;50.774;7.188;2022-07-24T04:47:34;9.43;;;8.03;;
19635;SDS011;9965;50.774;7.188;2022-07-24T04:50:01;10.33;;;7.70;;
19635;SDS011;9965;50.774;7.188;2022-07-24T04:52:28;8.07;;;7.27;;
19635;SDS011;9965;50.774;7.188;2022-07-24T04:54:53;9.30;;;8.30;;
19635;SDS011;9965;50.774;7.188;2022-07-24T04:57:19;8.10;;;7.27;;
19635;SDS011;9965;50.774;7.188;2022-07-24T04:59:44;8.73;;;7.83;;
19635;SDS011;9965;50.774;7.188;2022-07-24T05:02:10;8.43;;;7.20;;
19635;SDS011;9965;50.774;7.188;2022-07-24T05:04:36;8.87;;;7.60;;
19635;SDS011;9965;50.774;7.188;2022-07-24T05:07:02;8.33;;;7.53;;
19635;SDS011;9965;50.774;7.188;2022-07-24T05:09:28;9.37;;;7.30;;
19635;SDS011;9965;50.774;7.188;2022-07-24T05:11:54;8.07;;;7.27;;
19635;SDS011;9965;50.774;7.188;2022-07-24T05:14:19;7.87;;;7.07;;
19635;SDS011;9965;50.774;7.188;2022-07-24T05:16:45;8.10;;;7.30;;
19635;SDS011;9965;50.774;7.188;2022-07-24T05:19:11;7.90;;;7.17;;
19635;SDS011;9965;50.774;7.188;2022-07-24T05:21:36;11.27;;;7.07;;
19635;SDS011;9965;50.774;7.188;2022-07-24T05:24:02;8.90;;;6.77;;
19635;SDS011;9965;50.774;7.188;2022-07-24T05:26:31;8.90;;;7.27;;
19635;SDS011;9965;50.774;7.188;2022-07-24T05:29:00;7.30;;;6.47;;
19635;SDS011;9965;50.774;7.188;2022-07-24T05:31:27;7.60;;;6.90;;
19635;SDS011;9965;50.774;7.188;2022-07-24T05:33:53;9.43;;;7.03;;
19635;SDS011;9965;50.774;7.188;2022-07-24T05:36:19;7.70;;;6.90;;
19635;SDS011;9965;50.774;7.188;2022-07-24T05:38:45;8.40;;;7.10;;
19635;SDS011;9965;50.774;7.188;2022-07-24T05:41:12;9.37;;;6.63;;
19635;SDS011;9965;50.774;7.188;2022-07-24T05:43:38;8.03;;;6.60;;
19635;SDS011;9965;50.774;7.188;2022-07-24T05:46:04;8.43;;;7.13;;
19635;SDS011;9965;50.774;7.188;2022-07-24T05:48:30;10.10;;;6.77;;
19635;SDS011;9965;50.774;7.188;2022-07-24T05:50:56;7.77;;;6.50;;
19635;SDS011;9965;50.774;7.188;2022-07-24T05:53:22;8.70;;;6.57;;
19635;SDS011;9965;50.774;7.188;2022-07-24T05:55:48;10.70;;;6.20;;
19635;SDS011;9965;50.774;7.188;2022-07-24T05:58:14;6.30;;;5.70;;
19635;SDS011;9965;50.774;7.188;2022-07-24T06:00:40;6.67;;;6.00;;
19635;SDS011;9965;50.774;7.188;2022-07-24T06:03:06;6.43;;;5.50;;
19635;SDS011;9965;50.774;7.188;2022-07-24T06:05:31;6.73;;;5.50;;
19635;SDS011;9965;50.774;7.188;2022-07-24T06:07:57;6.50;;;5.37;;
19635;SDS011;9965;50.774;7.188;2022-07-24T06:10:23;7.70;;;6.03;;
19635;SDS011;9965;50.774;7.188;2022-07-24T06:12:49;6.20;;;5.60;;
19635;SDS011;9965;50.774;7.188;2022-07-24T06:15:14;4.97;;;4.50;;
19635;SDS011;9965;50.774;7.188;2022-07-24T06:17:40;7.40;;;5.67;;
19635;SDS011;9965;50.774;7.188;2022-07-24T06:20:07;9.87;;;5.47;;
19635;SDS011;9965;50.774;7.188;2022-07-24T06:22:34;5.78;;;5.10;;
19635;SDS011;9965;50.774;7.188;2022-07-24T06:24:59;6.72;;;4.90;;
19635;SDS011;9965;50.774;7.188;2022-07-24T06:27:25;5.70;;;5.20;;
19635;SDS011;9965;50.774;7.188;2022-07-24T06:29:51;5.47;;;4.95;;
19635;SDS011;9965;50.774;7.188;2022-07-24T06:32:16;5.80;;;4.90;;
19635;SDS011;9965;50.774;7.188;2022-07-24T06:34:42;6.32;;;4.65;;
19635;SDS011;9965;50.774;7.188;2022-07-24T06:37:08;5.18;;;4.68;;
19635;SDS011;9965;50.774;7.188;2022-07-24T06:39:34;5.13;;;4.55;;
19635;SDS011;9965;50.774;7.188;2022-07-24T06:41:59;5.28;;;4.20;;
19635;SDS011;9965;50.774;7.188;2022-07-24T06:44:25;5.28;;;4.75;;
19635;SDS011;9965;50.774;7.188;2022-07-24T06:46:51;6.38;;;4.20;;
19635;SDS011;9965;50.774;7.188;2022-07-24T06:49:17;5.82;;;4.45;;
19635;SDS011;9965;50.774;7.188;2022-07-24T06:51:42;5.57;;;4.47;;
19635;SDS011;9965;50.774;7.188;2022-07-24T06:54:09;6.70;;;4.05;;
19635;SDS011;9965;50.774;7.188;2022-07-24T06:56:35;5.68;;;4.43;;
19635;SDS011;9965;50.774;7.188;2022-07-24T06:59:01;5.00;;;4.50;;
19635;SDS011;9965;50.774;7.188;2022-07-24T07:01:27;4.63;;;4.15;;
19635;SDS011;9965;50.774;7.188;2022-07-24T07:03:53;4.47;;;4.07;;
19635;SDS011;9965;50.774;7.188;2022-07-24T07:06:18;4.30;;;3.90;;
19635;SDS011;9965;50.774;7.188;2022-07-24T07:08:44;4.38;;;3.97;;
19635;SDS011;9965;50.774;7.188;2022-07-24T07:11:10;4.85;;;3.90;;
19635;SDS011;9965;50.774;7.188;2022-07-24T07:13:36;5.32;;;3.50;;
19635;SDS011;9965;50.774;7.188;2022-07-24T07:16:01;5.10;;;3.90;;
19635;SDS011;9965;50.774;7.188;2022-07-24T07:18:27;4.15;;;3.80;;
19635;SDS011;9965;50.774;7.188;2022-07-24T07:20:53;3.97;;;3.58;;
19635;SDS011;9965;50.774;7.188;2022-07-24T07:23:28;4.93;;;3.78;;
19635;SDS011;9965;50.774;7.188;2022-07-24T07:25:53;4.88;;;3.85;;
19635;SDS011;9965;50.774;7.188;2022-07-24T07:28:19;4.63;;;3.53;;
19635;SDS011;9965;50.774;7.188;2022-07-24T07:30:45;4.82;;;3.30;;
19635;SDS011;9965;50.774;7.188;2022-07-24T07:33:11;3.70;;;3.40;;
19635;SDS011;9965;50.774;7.188;2022-07-24T07:35:37;3.78;;;3.38;;
19635;SDS011;9965;50.774;7.188;2022-07-24T07:38:03;4.30;;;3.90;;
19635;SDS011;9965;50.774;7.188;2022-07-24T07:40:29;4.00;;;3.47;;
19635;SDS011;9965;50.774;7.188;2022-07-24T07:42:54;4.18;;;3.78;;
19635;SDS011;9965;50.774;7.188;2022-07-24T07:45:20;4.10;;;3.60;;
19635;SDS011;9965;50.774;7.188;2022-07-24T07:47:46;5.78;;;3.50;;
19635;SDS011;9965;50.774;7.188;2022-07-24T07:50:13;5.00;;;3.10;;
19635;SDS011;9965;50.774;7.188;2022-07-24T07:52:39;3.42;;;3.10;;
19635;SDS011;9965;50.774;7.188;2022-07-24T07:55:05;3.72;;;3.33;;
19635;SDS011;9965;50.774;7.188;2022-07-24T07:57:32;4.13;;;3.60;;
19635;SDS011;9965;50.774;7.188;2022-07-24T07:59:58;7.15;;;4.00;;
19635;SDS011;9965;50.774;7.188;2022-07-24T08:02:23;3.78;;;3.47;;
19635;SDS011;9965;50.774;7.188;2022-07-24T08:04:49;4.20;;;3.80;;
19635;SDS011;9965;50.774;7.188;2022-07-24T08:07:14;3.85;;;3.28;;
19635;SDS011;9965;50.774;7.188;2022-07-24T08:09:40;3.10;;;2.83;;
19635;SDS011;9965;50.774;7.188;2022-07-24T08:12:06;5.47;;;4.97;;
19635;SDS011;9965;50.774;7.188;2022-07-24T08:14:32;3.90;;;3.50;;
19635;SDS011;9965;50.774;7.188;2022-07-24T08:16:58;3.70;;;3.10;;
19635;SDS011;9965;50.774;7.188;2022-07-24T08:19:24;4.40;;;3.17;;
19635;SDS011;9965;50.774;7.188;2022-07-24T08:21:49;4.78;;;3.30;;
19635;SDS011;9965;50.774;7.188;2022-07-24T08:24:16;3.72;;;3.42;;
19635;SDS011;9965;50.774;7.188;2022-07-24T08:26:48;3.60;;;2.85;;
19635;SDS011;9965;50.774;7.188;2022-07-24T08:29:15;4.70;;;3.53;;
19635;SDS011;9965;50.774;7.188;2022-07-24T08:31:41;3.70;;;3.15;;
19635;SDS011;9965;50.774;7.188;2022-07-24T08:34:08;3.72;;;3.42;;
19635;SDS011;9965;50.774;7.188;2022-07-24T08:36:34;4.75;;;3.40;;
19635;SDS011;9965;50.774;7.188;2022-07-24T08:38:59;4.95;;;3.20;;
19635;SDS011;9965;50.774;7.188;2022-07-24T08:41:25;3.67;;;2.97;;
19635;SDS011;9965;50.774;7.188;2022-07-24T08:43:57;3.50;;;3.20;;
19635;SDS011;9965;50.774;7.188;2022-07-24T08:46:24;3.80;;;3.30;;
19635;SDS011;9965;50.774;7.188;2022-07-24T08:48:52;3.95;;;3.47;;
19635;SDS011;9965;50.774;7.188;2022-07-24T08:51:18;5.03;;;3.70;;
19635;SDS011;9965;50.774;7.188;2022-07-24T08:53:45;6.53;;;3.35;;
19635;SDS011;9965;50.774;7.188;2022-07-24T08:56:12;3.83;;;3.47;;
19635;SDS011;9965;50.774;7.188;2022-07-24T08:58:38;3.50;;;3.20;;
19635;SDS011;9965;50.774;7.188;2022-07-24T09:01:06;4.07;;;3.53;;
19635;SDS011;9965;50.774;7.188;2022-07-24T09:03:40;3.67;;;3.38;;
19635;SDS011;9965;50.774;7.188;2022-07-24T09:06:07;3.15;;;2.95;;
19635;SDS011;9965;50.774;7.188;2022-07-24T09:08:35;3.75;;;3.05;;
19635;SDS011;9965;50.774;7.188;2022-07-24T09:11:03;5.97;;;3.72;;
19635;SDS011;9965;50.774;7.188;2022-07-24T09:13:29;3.50;;;3.17;;
19635;SDS011;9965;50.774;7.188;2022-07-24T09:16:23;4.72;;;4.05;;
19635;SDS011;9965;50.774;7.188;2022-07-24T09:18:51;5.80;;;3.72;;
19635;SDS011;9965;50.774;7.188;2022-07-24T09:21:28;4.80;;;4.05;;
19635;SDS011;9965;50.774;7.188;2022-07-24T09:23:58;5.38;;;4.28;;
19635;SDS011;9965;50.774;7.188;2022-07-24T09:26:43;7.68;;;4.78;;
19635;SDS011;9965;50.774;7.188;2022-07-24T09:29:11;5.70;;;4.72;;
19635;SDS011;9965;50.774;7.188;2022-07-24T09:34:46;5.30;;;4.80;;
19635;SDS011;9965;50.774;7.188;2022-07-24T09:37:16;5.03;;;4.60;;
19635;SDS011;9965;50.774;7.188;2022-07-24T09:39:42;5.00;;;4.53;;
19635;SDS011;9965;50.774;7.188;2022-07-24T09:42:08;5.30;;;4.80;;
19635;SDS011;9965;50.774;7.188;2022-07-24T09:44:34;4.80;;;4.40;;
19635;SDS011;9965;50.774;7.188;2022-07-24T09:47:11;5.13;;;4.63;;
19635;SDS011;9965;50.774;7.188;2022-07-24T09:49:38;5.63;;;4.60;;
19635;SDS011;9965;50.774;7.188;2022-07-24T09:54:43;5.30;;;4.75;;
19635;SDS011;9965;50.774;7.188;2022-07-24T09:57:14;5.30;;;4.57;;
19635;SDS011;9965;50.774;7.188;2022-07-24T09:59:51;5.88;;;4.38;;
19635;SDS011;9965;50.774;7.188;2022-07-24T10:02:19;6.07;;;4.80;;
19635;SDS011;9965;50.774;7.188;2022-07-24T10:04:47;5.80;;;5.30;;
19635;SDS011;9965;50.774;7.188;2022-07-24T10:07:15;5.72;;;4.82;;
19635;SDS011;9965;50.774;7.188;2022-07-24T10:09:44;6.63;;;4.70;;
19635;SDS011;9965;50.774;7.188;2022-07-24T10:12:17;5.93;;;4.60;;
19635;SDS011;9965;50.774;7.188;2022-07-24T10:14:45;8.40;;;4.88;;
19635;SDS011;9965;50.774;7.188;2022-07-24T10:17:12;7.13;;;5.05;;
19635;SDS011;9965;50.774;7.188;2022-07-24T10:19:42;5.13;;;4.63;;
19635;SDS011;9965;50.774;7.188;2022-07-24T10:22:19;5.15;;;4.65;;
19635;SDS011;9965;50.774;7.188;2022-07-24T10:24:53;7.65;;;4.82;;
19635;SDS011;9965;50.774;7.188;2022-07-24T10:27:35;5.88;;;5.05;;
19635;SDS011;9965;50.774;7.188;2022-07-24T10:30:03;7.10;;;4.80;;
19635;SDS011;9965;50.774;7.188;2022-07-24T10:32:31;6.82;;;4.88;;
19635;SDS011;9965;50.774;7.188;2022-07-24T10:35:02;6.07;;;5.30;;
19635;SDS011;9965;50.774;7.188;2022-07-24T10:40:18;5.93;;;4.30;;
19635;SDS011;9965;50.774;7.188;2022-07-24T10:45:30;5.57;;;5.07;;
19635;SDS011;9965;50.774;7.188;2022-07-24T10:47:58;6.28;;;4.55;;
19635;SDS011;9965;50.774;7.188;2022-07-24T10:58:56;5.05;;;4.55;;
19635;SDS011;9965;50.774;7.188;2022-07-24T11:01:34;6.10;;;4.90;;
19635;SDS011;9965;50.774;7.188;2022-07-24T11:04:26;6.57;;;4.53;;
19635;SDS011;9965;50.774;7.188;2022-07-24T11:07:08;5.55;;;4.93;;
19635;SDS011;9965;50.774;7.188;2022-07-24T11:12:31;6.00;;;4.65;;
19635;SDS011;9965;50.774;7.188;2022-07-24T11:15:07;5.63;;;4.88;;
19635;SDS011;9965;50.774;7.188;2022-07-24T11:17:52;5.00;;;4.50;;
19635;SDS011;9965;50.774;7.188;2022-07-24T11:20:18;4.85;;;4.35;;
19635;SDS011;9965;50.774;7.188;2022-07-24T11:22:50;4.47;;;4.07;;
19635;SDS011;9965;50.774;7.188;2022-07-24T11:25:19;5.68;;;4.63;;
19635;SDS011;9965;50.774;7.188;2022-07-24T11:30:17;4.53;;;4.13;;
19635;SDS011;9965;50.774;7.188;2022-07-24T11:32:43;5.75;;;4.50;;
19635;SDS011;9965;50.774;7.188;2022-07-24T11:35:09;3.92;;;3.58;;
19635;SDS011;9965;50.774;7.188;2022-07-24T11:37:36;4.20;;;3.80;;
19635;SDS011;9965;50.774;7.188;2022-07-24T11:40:03;4.13;;;3.72;;
19635;SDS011;9965;50.774;7.188;2022-07-24T11:42:32;5.97;;;4.57;;
19635;SDS011;9965;50.774;7.188;2022-07-24T11:44:58;4.22;;;3.60;;
19635;SDS011;9965;50.774;7.188;2022-07-24T11:47:26;5.80;;;4.03;;
19635;SDS011;9965;50.774;7.188;2022-07-24T11:49:53;4.25;;;3.88;;
19635;SDS011;9965;50.774;7.188;2022-07-24T11:52:35;4.45;;;4.05;;
19635;SDS011;9965;50.774;7.188;2022-07-24T11:55:07;5.55;;;4.30;;
19635;SDS011;9965;50.774;7.188;2022-07-24T11:57:36;4.05;;;3.63;;
19635;SDS011;9965;50.774;7.188;2022-07-24T12:00:04;4.40;;;3.83;;
19635;SDS011;9965;50.774;7.188;2022-07-24T12:02:44;4.25;;;3.75;;
19635;SDS011;9965;50.774;7.188;2022-07-24T12:05:11;5.65;;;4.60;;
19635;SDS011;9965;50.774;7.188;2022-07-24T12:07:37;4.40;;;4.00;;
19635;SDS011;9965;50.774;7.188;2022-07-24T12:10:04;7.45;;;4.13;;
19635;SDS011;9965;50.774;7.188;2022-07-24T12:12:31;4.13;;;3.72;;
19635;SDS011;9965;50.774;7.188;2022-07-24T12:15:08;4.63;;;4.20;;
19635;SDS011;9965;50.774;7.188;2022-07-24T12:20:29;5.22;;;4.72;;
19635;SDS011;9965;50.774;7.188;2022-07-24T12:23:01;4.53;;;3.95;;
19635;SDS011;9965;50.774;7.188;2022-07-24T12:25:29;4.47;;;4.07;;
19635;SDS011;9965;50.774;7.188;2022-07-24T12:28:09;4.25;;;3.70;;
19635;SDS011;9965;50.774;7.188;2022-07-24T12:30:36;4.28;;;3.88;;
19635;SDS011;9965;50.774;7.188;2022-07-24T12:33:06;4.15;;;3.83;;
19635;SDS011;9965;50.774;7.188;2022-07-24T12:35:34;5.07;;;4.40;;
19635;SDS011;9965;50.774;7.188;2022-07-24T12:38:22;4.65;;;3.90;;
19635;SDS011;9965;50.774;7.188;2022-07-24T12:41:05;7.35;;;4.40;;
19635;SDS011;9965;50.774;7.188;2022-07-24T12:46:22;7.38;;;4.20;;
19635;SDS011;9965;50.774;7.188;2022-07-24T12:51:26;4.47;;;4.07;;
19635;SDS011;9965;50.774;7.188;2022-07-24T12:53:55;4.38;;;3.97;;
19635;SDS011;9965;50.774;7.188;2022-07-24T12:56:21;5.05;;;3.75;;
19635;SDS011;9965;50.774;7.188;2022-07-24T13:01:17;4.45;;;4.05;;
19635;SDS011;9965;50.774;7.188;2022-07-24T13:03:49;4.28;;;3.90;;
19635;SDS011;9965;50.774;7.188;2022-07-24T13:06:18;6.25;;;4.05;;
19635;SDS011;9965;50.774;7.188;2022-07-24T13:08:44;6.85;;;4.20;;
19635;SDS011;9965;50.774;7.188;2022-07-24T13:11:09;6.53;;;4.43;;
19635;SDS011;9965;50.774;7.188;2022-07-24T13:13:35;5.15;;;3.92;;
19635;SDS011;9965;50.774;7.188;2022-07-24T13:16:00;6.00;;;4.00;;
19635;SDS011;9965;50.774;7.188;2022-07-24T13:18:28;4.38;;;3.97;;
19635;SDS011;9965;50.774;7.188;2022-07-24T13:20:53;4.45;;;4.05;;
19635;SDS011;9965;50.774;7.188;2022-07-24T13:23:19;4.28;;;3.88;;
19635;SDS011;9965;50.774;7.188;2022-07-24T13:25:45;4.50;;;3.95;;
19635;SDS011;9965;50.774;7.188;2022-07-24T13:28:12;4.10;;;3.70;;
19635;SDS011;9965;50.774;7.188;2022-07-24T13:30:38;8.02;;;4.25;;
19635;SDS011;9965;50.774;7.188;2022-07-24T13:33:04;6.75;;;3.75;;
19635;SDS011;9965;50.774;7.188;2022-07-24T13:35:29;4.13;;;3.72;;
19635;SDS011;9965;50.774;7.188;2022-07-24T13:37:55;7.50;;;4.05;;
19635;SDS011;9965;50.774;7.188;2022-07-24T13:40:21;4.57;;;4.18;;
19635;SDS011;9965;50.774;7.188;2022-07-24T13:42:46;4.40;;;3.83;;
19635;SDS011;9965;50.774;7.188;2022-07-24T13:45:12;5.22;;;4.00;;
19635;SDS011;9965;50.774;7.188;2022-07-24T13:47:38;4.18;;;3.78;;
19635;SDS011;9965;50.774;7.188;2022-07-24T13:50:03;4.90;;;3.97;;
19635;SDS011;9965;50.774;7.188;2022-07-24T13:52:30;4.78;;;3.95;;
19635;SDS011;9965;50.774;7.188;2022-07-24T13:54:55;4.63;;;4.05;;
19635;SDS011;9965;50.774;7.188;2022-07-24T13:57:21;4.70;;;4.20;;
19635;SDS011;9965;50.774;7.188;2022-07-24T13:59:46;4.43;;;4.03;;
19635;SDS011;9965;50.774;7.188;2022-07-24T14:02:12;5.35;;;3.88;;
19635;SDS011;9965;50.774;7.188;2022-07-24T14:04:40;3.83;;;3.53;;
19635;SDS011;9965;50.774;7.188;2022-07-24T14:07:06;4.10;;;3.80;;
19635;SDS011;9965;50.774;7.188;2022-07-24T14:09:32;4.72;;;3.92;;
19635;SDS011;9965;50.774;7.188;2022-07-24T14:11:58;4.38;;;3.80;;
19635;SDS011;9965;50.774;7.188;2022-07-24T14:14:23;6.60;;;3.70;;
19635;SDS011;9965;50.774;7.188;2022-07-24T14:16:49;4.50;;;3.70;;
19635;SDS011;9965;50.774;7.188;2022-07-24T14:19:15;4.43;;;4.03;;
19635;SDS011;9965;50.774;7.188;2022-07-24T14:21:41;3.80;;;3.50;;
19635;SDS011;9965;50.774;7.188;2022-07-24T14:24:10;4.03;;;3.70;;
19635;SDS011;9965;50.774;7.188;2022-07-24T14:26:36;6.40;;;4.22;;
19635;SDS011;9965;50.774;7.188;2022-07-24T14:29:02;4.35;;;3.95;;
19635;SDS011;9965;50.774;7.188;2022-07-24T14:31:27;4.47;;;4.03;;
19635;SDS011;9965;50.774;7.188;2022-07-24T14:33:53;6.15;;;4.15;;
19635;SDS011;9965;50.774;7.188;2022-07-24T14:36:18;3.78;;;3.47;;
19635;SDS011;9965;50.774;7.188;2022-07-24T14:38:44;4.20;;;3.80;;
19635;SDS011;9965;50.774;7.188;2022-07-24T14:41:10;4.05;;;3.75;;
19635;SDS011;9965;50.774;7.188;2022-07-24T14:43:36;5.93;;;4.10;;
19635;SDS011;9965;50.774;7.188;2022-07-24T14:46:02;4.80;;;3.83;;
19635;SDS011;9965;50.774;7.188;2022-07-24T14:48:28;4.40;;;4.00;;
19635;SDS011;9965;50.774;7.188;2022-07-24T14:50:53;6.53;;;3.97;;
19635;SDS011;9965;50.774;7.188;2022-07-24T14:53:19;3.83;;;3.53;;
19635;SDS011;9965;50.774;7.188;2022-07-24T14:55:44;4.80;;;4.18;;
19635;SDS011;9965;50.774;7.188;2022-07-24T14:58:10;4.00;;;3.67;;
19635;SDS011;9965;50.774;7.188;2022-07-24T15:00:36;5.00;;;3.55;;
19635;SDS011;9965;50.774;7.188;2022-07-24T15:03:01;4.57;;;4.15;;
19635;SDS011;9965;50.774;7.188;2022-07-24T15:05:27;4.22;;;3.72;;
19635;SDS011;9965;50.774;7.188;2022-07-24T15:07:52;4.40;;;4.00;;
19635;SDS011;9965;50.774;7.188;2022-07-24T15:10:18;4.70;;;3.80;;
19635;SDS011;9965;50.774;7.188;2022-07-24T15:12:44;5.97;;;4.00;;
19635;SDS011;9965;50.774;7.188;2022-07-24T15:15:09;4.05;;;3.65;;
19635;SDS011;9965;50.774;7.188;2022-07-24T15:17:35;3.83;;;3.53;;
19635;SDS011;9965;50.774;7.188;2022-07-24T15:20:01;6.55;;;3.65;;
19635;SDS011;9965;50.774;7.188;2022-07-24T15:22:27;5.68;;;3.53;;
19635;SDS011;9965;50.774;7.188;2022-07-24T15:24:52;4.95;;;3.97;;
19635;SDS011;9965;50.774;7.188;2022-07-24T15:27:18;4.38;;;3.97;;
19635;SDS011;9965;50.774;7.188;2022-07-24T15:29:43;6.40;;;4.05;;
19635;SDS011;9965;50.774;7.188;2022-07-24T15:32:09;4.13;;;3.70;;
19635;SDS011;9965;50.774;7.188;2022-07-24T15:34:35;4.32;;;3.92;;
19635;SDS011;9965;50.774;7.188;2022-07-24T15:37:00;3.90;;;3.60;;
19635;SDS011;9965;50.774;7.188;2022-07-24T15:39:26;5.60;;;3.60;;